Fishers Landing, New York
Current Conditions -  °F | °C
As of 4:24 PM on Saturday 25 Oct 2014 (Local Time) from KART Reporting Station
Light Rain Light Rain  
Wind Chill: 56°   Ceiling: 3900
Heat Index: 56°   Visibility: 3mi
Dew Point: 49°   Wind: 9mph
Humidity: 77%   Direction: 230°SW
Pressure: 29.53"   Gusts: NA
Location:  44.28°N, 76.01°W
Report Text: KART 252024Z AUTO 23008KT 200V260 3SM -RA SCT030 OVC039 13/09 A2953 RMK AO2 LTG DSNT SW P0003 T01330094
Loading
Personal Weather Stations






























Interactive Weather Map
Tropical Storm Tracking
New forecast layout! Learn more

10-Day Weather Forecast

Advertisements
Track Severe Weather on mobile